sensor_id;sensor_type;location;lat;lon;timestamp;P1;durP1;ratioP1;P2;durP2;ratioP2
2023;SDS011;1016;48.770;9.154;2023-02-13T00:00:22;29.67;;;12.07;;
2023;SDS011;1016;48.770;9.154;2023-02-13T00:02:49;30.10;;;12.90;;
2023;SDS011;1016;48.770;9.154;2023-02-13T00:05:15;31.00;;;12.80;;
2023;SDS011;1016;48.770;9.154;2023-02-13T00:07:41;28.97;;;12.03;;
2023;SDS011;1016;48.770;9.154;2023-02-13T00:10:07;32.30;;;13.60;;
2023;SDS011;1016;48.770;9.154;2023-02-13T00:12:33;31.33;;;12.93;;
2023;SDS011;1016;48.770;9.154;2023-02-13T00:14:58;30.50;;;12.90;;
2023;SDS011;1016;48.770;9.154;2023-02-13T00:17:24;30.07;;;12.73;;
2023;SDS011;1016;48.770;9.154;2023-02-13T00:19:50;31.53;;;13.70;;
2023;SDS011;1016;48.770;9.154;2023-02-13T00:22:16;31.10;;;14.00;;
2023;SDS011;1016;48.770;9.154;2023-02-13T00:24:41;31.27;;;13.17;;
2023;SDS011;1016;48.770;9.154;2023-02-13T00:27:07;32.70;;;13.57;;
2023;SDS011;1016;48.770;9.154;2023-02-13T00:29:33;29.83;;;13.27;;
2023;SDS011;1016;48.770;9.154;2023-02-13T00:31:58;31.10;;;13.00;;
2023;SDS011;1016;48.770;9.154;2023-02-13T00:34:25;34.13;;;13.00;;
2023;SDS011;1016;48.770;9.154;2023-02-13T00:36:51;31.47;;;13.13;;
2023;SDS011;1016;48.770;9.154;2023-02-13T00:39:17;32.77;;;14.00;;
2023;SDS011;1016;48.770;9.154;2023-02-13T00:41:42;30.97;;;12.80;;
2023;SDS011;1016;48.770;9.154;2023-02-13T00:44:08;29.87;;;12.77;;
2023;SDS011;1016;48.770;9.154;2023-02-13T00:46:34;31.13;;;13.40;;
2023;SDS011;1016;48.770;9.154;2023-02-13T00:49:00;31.87;;;14.03;;
2023;SDS011;1016;48.770;9.154;2023-02-13T00:51:26;33.23;;;13.67;;
2023;SDS011;1016;48.770;9.154;2023-02-13T00:53:51;33.17;;;14.20;;
2023;SDS011;1016;48.770;9.154;2023-02-13T00:56:17;32.70;;;13.33;;
2023;SDS011;1016;48.770;9.154;2023-02-13T00:58:42;30.80;;;13.80;;
2023;SDS011;1016;48.770;9.154;2023-02-13T01:01:08;32.20;;;13.83;;
2023;SDS011;1016;48.770;9.154;2023-02-13T01:03:33;32.90;;;13.90;;
2023;SDS011;1016;48.770;9.154;2023-02-13T01:05:59;33.03;;;13.97;;
2023;SDS011;1016;48.770;9.154;2023-02-13T01:08:24;31.60;;;13.70;;
2023;SDS011;1016;48.770;9.154;2023-02-13T01:10:52;32.17;;;14.10;;
2023;SDS011;1016;48.770;9.154;2023-02-13T01:13:18;32.03;;;13.87;;
2023;SDS011;1016;48.770;9.154;2023-02-13T01:15:44;32.93;;;14.03;;
2023;SDS011;1016;48.770;9.154;2023-02-13T01:18:12;31.23;;;14.43;;
2023;SDS011;1016;48.770;9.154;2023-02-13T01:20:38;33.17;;;14.23;;
2023;SDS011;1016;48.770;9.154;2023-02-13T01:23:05;33.73;;;14.10;;
2023;SDS011;1016;48.770;9.154;2023-02-13T01:25:30;33.90;;;14.40;;
2023;SDS011;1016;48.770;9.154;2023-02-13T01:27:56;35.07;;;14.60;;
2023;SDS011;1016;48.770;9.154;2023-02-13T01:30:21;32.60;;;14.00;;
2023;SDS011;1016;48.770;9.154;2023-02-13T01:32:47;32.23;;;13.50;;
2023;SDS011;1016;48.770;9.154;2023-02-13T01:35:13;31.00;;;13.80;;
2023;SDS011;1016;48.770;9.154;2023-02-13T01:37:40;33.57;;;14.37;;
2023;SDS011;1016;48.770;9.154;2023-02-13T01:40:07;32.60;;;14.20;;
2023;SDS011;1016;48.770;9.154;2023-02-13T01:42:34;33.07;;;13.50;;
2023;SDS011;1016;48.770;9.154;2023-02-13T01:45:04;33.43;;;13.80;;
2023;SDS011;1016;48.770;9.154;2023-02-13T01:47:47;33.57;;;14.27;;
2023;SDS011;1016;48.770;9.154;2023-02-13T01:50:21;33.27;;;14.13;;
2023;SDS011;1016;48.770;9.154;2023-02-13T01:53:07;31.30;;;14.00;;
2023;SDS011;1016;48.770;9.154;2023-02-13T01:55:49;34.00;;;13.60;;
2023;SDS011;1016;48.770;9.154;2023-02-13T01:58:23;33.20;;;13.97;;
2023;SDS011;1016;48.770;9.154;2023-02-13T02:00:52;33.87;;;14.27;;
2023;SDS011;1016;48.770;9.154;2023-02-13T02:03:25;36.30;;;15.57;;
2023;SDS011;1016;48.770;9.154;2023-02-13T02:05:56;33.63;;;14.57;;
2023;SDS011;1016;48.770;9.154;2023-02-13T02:08:23;34.40;;;15.10;;
2023;SDS011;1016;48.770;9.154;2023-02-13T02:10:50;33.50;;;13.77;;
2023;SDS011;1016;48.770;9.154;2023-02-13T02:13:17;35.30;;;15.00;;
2023;SDS011;1016;48.770;9.154;2023-02-13T02:15:44;34.50;;;14.73;;
2023;SDS011;1016;48.770;9.154;2023-02-13T02:18:15;36.73;;;15.00;;
2023;SDS011;1016;48.770;9.154;2023-02-13T02:29:28;33.13;;;14.00;;
2023;SDS011;1016;48.770;9.154;2023-02-13T02:35:18;34.80;;;14.13;;
2023;SDS011;1016;48.770;9.154;2023-02-13T02:48:04;35.73;;;14.60;;
2023;SDS011;1016;48.770;9.154;2023-02-13T02:53:38;33.57;;;14.10;;
2023;SDS011;1016;48.770;9.154;2023-02-13T02:56:49;33.80;;;13.60;;
2023;SDS011;1016;48.770;9.154;2023-02-13T02:59:16;33.67;;;13.97;;
2023;SDS011;1016;48.770;9.154;2023-02-13T03:02:03;34.47;;;14.60;;
2023;SDS011;1016;48.770;9.154;2023-02-13T03:04:50;34.30;;;14.00;;
2023;SDS011;1016;48.770;9.154;2023-02-13T03:07:36;35.00;;;14.53;;
2023;SDS011;1016;48.770;9.154;2023-02-13T03:10:13;31.60;;;14.60;;
2023;SDS011;1016;48.770;9.154;2023-02-13T03:13:11;32.23;;;12.93;;
2023;SDS011;1016;48.770;9.154;2023-02-13T03:15:44;33.30;;;14.47;;
2023;SDS011;1016;48.770;9.154;2023-02-13T03:18:32;32.37;;;13.90;;
2023;SDS011;1016;48.770;9.154;2023-02-13T03:21:23;34.53;;;15.03;;
2023;SDS011;1016;48.770;9.154;2023-02-13T03:27:11;32.73;;;14.33;;
2023;SDS011;1016;48.770;9.154;2023-02-13T03:30:22;33.40;;;12.97;;
2023;SDS011;1016;48.770;9.154;2023-02-13T03:33:20;36.10;;;15.00;;
2023;SDS011;1016;48.770;9.154;2023-02-13T03:36:10;33.50;;;14.70;;
2023;SDS011;1016;48.770;9.154;2023-02-13T03:39:18;35.47;;;15.23;;
2023;SDS011;1016;48.770;9.154;2023-02-13T03:42:05;35.40;;;14.90;;
2023;SDS011;1016;48.770;9.154;2023-02-13T03:47:10;35.60;;;15.97;;
2023;SDS011;1016;48.770;9.154;2023-02-13T03:52:43;35.40;;;14.73;;
2023;SDS011;1016;48.770;9.154;2023-02-13T03:55:17;35.20;;;14.83;;
2023;SDS011;1016;48.770;9.154;2023-02-13T03:58:06;39.43;;;16.73;;
2023;SDS011;1016;48.770;9.154;2023-02-13T04:00:56;35.37;;;15.10;;
2023;SDS011;1016;48.770;9.154;2023-02-13T04:03:28;38.27;;;15.70;;
2023;SDS011;1016;48.770;9.154;2023-02-13T04:06:12;35.40;;;15.23;;
2023;SDS011;1016;48.770;9.154;2023-02-13T04:08:40;36.27;;;15.53;;
2023;SDS011;1016;48.770;9.154;2023-02-13T04:13:35;37.33;;;16.63;;
2023;SDS011;1016;48.770;9.154;2023-02-13T04:16:09;38.10;;;15.77;;
2023;SDS011;1016;48.770;9.154;2023-02-13T04:18:39;34.43;;;15.60;;
2023;SDS011;1016;48.770;9.154;2023-02-13T04:21:07;36.37;;;15.83;;
2023;SDS011;1016;48.770;9.154;2023-02-13T04:23:33;35.87;;;16.30;;
2023;SDS011;1016;48.770;9.154;2023-02-13T04:25:59;36.67;;;15.37;;
2023;SDS011;1016;48.770;9.154;2023-02-13T04:28:27;35.70;;;14.97;;
2023;SDS011;1016;48.770;9.154;2023-02-13T04:30:53;36.87;;;16.00;;
2023;SDS011;1016;48.770;9.154;2023-02-13T04:33:19;33.67;;;14.70;;
2023;SDS011;1016;48.770;9.154;2023-02-13T04:35:45;32.90;;;14.90;;
2023;SDS011;1016;48.770;9.154;2023-02-13T04:38:11;37.07;;;16.27;;
2023;SDS011;1016;48.770;9.154;2023-02-13T04:40:37;34.93;;;14.70;;
2023;SDS011;1016;48.770;9.154;2023-02-13T04:43:03;36.67;;;15.60;;
2023;SDS011;1016;48.770;9.154;2023-02-13T04:45:28;37.93;;;16.53;;
2023;SDS011;1016;48.770;9.154;2023-02-13T04:47:54;35.03;;;14.83;;
2023;SDS011;1016;48.770;9.154;2023-02-13T04:50:21;37.20;;;16.03;;
2023;SDS011;1016;48.770;9.154;2023-02-13T04:52:49;33.93;;;15.10;;
2023;SDS011;1016;48.770;9.154;2023-02-13T04:55:16;36.07;;;15.40;;
2023;SDS011;1016;48.770;9.154;2023-02-13T04:57:42;34.53;;;15.20;;
2023;SDS011;1016;48.770;9.154;2023-02-13T05:00:07;36.23;;;15.73;;
2023;SDS011;1016;48.770;9.154;2023-02-13T05:02:34;37.73;;;15.17;;
2023;SDS011;1016;48.770;9.154;2023-02-13T05:04:59;35.60;;;14.77;;
2023;SDS011;1016;48.770;9.154;2023-02-13T05:07:25;35.33;;;16.30;;
2023;SDS011;1016;48.770;9.154;2023-02-13T05:09:50;34.27;;;14.87;;
2023;SDS011;1016;48.770;9.154;2023-02-13T05:12:16;36.90;;;14.17;;
2023;SDS011;1016;48.770;9.154;2023-02-13T05:14:41;35.37;;;15.87;;
2023;SDS011;1016;48.770;9.154;2023-02-13T05:17:07;35.90;;;14.63;;
2023;SDS011;1016;48.770;9.154;2023-02-13T05:19:32;35.10;;;14.70;;
2023;SDS011;1016;48.770;9.154;2023-02-13T05:21:58;37.17;;;15.70;;
2023;SDS011;1016;48.770;9.154;2023-02-13T05:24:42;35.33;;;14.90;;
2023;SDS011;1016;48.770;9.154;2023-02-13T05:27:07;35.97;;;15.93;;
2023;SDS011;1016;48.770;9.154;2023-02-13T05:29:33;35.57;;;14.90;;
2023;SDS011;1016;48.770;9.154;2023-02-13T05:31:58;38.37;;;15.17;;
2023;SDS011;1016;48.770;9.154;2023-02-13T05:34:25;36.33;;;15.87;;
2023;SDS011;1016;48.770;9.154;2023-02-13T05:36:51;37.10;;;16.17;;
2023;SDS011;1016;48.770;9.154;2023-02-13T05:39:18;36.37;;;15.20;;
2023;SDS011;1016;48.770;9.154;2023-02-13T05:41:44;36.27;;;15.87;;
2023;SDS011;1016;48.770;9.154;2023-02-13T05:44:10;35.20;;;15.50;;
2023;SDS011;1016;48.770;9.154;2023-02-13T05:46:36;34.93;;;13.67;;
2023;SDS011;1016;48.770;9.154;2023-02-13T05:49:04;35.90;;;15.03;;
2023;SDS011;1016;48.770;9.154;2023-02-13T05:51:30;37.30;;;17.00;;
2023;SDS011;1016;48.770;9.154;2023-02-13T05:53:55;35.93;;;15.50;;
2023;SDS011;1016;48.770;9.154;2023-02-13T05:56:21;34.50;;;14.80;;
2023;SDS011;1016;48.770;9.154;2023-02-13T05:58:49;36.73;;;16.03;;
2023;SDS011;1016;48.770;9.154;2023-02-13T06:01:16;40.03;;;17.07;;
2023;SDS011;1016;48.770;9.154;2023-02-13T06:03:42;39.37;;;15.80;;
2023;SDS011;1016;48.770;9.154;2023-02-13T06:06:07;37.70;;;16.00;;
2023;SDS011;1016;48.770;9.154;2023-02-13T06:08:33;37.53;;;16.63;;
2023;SDS011;1016;48.770;9.154;2023-02-13T06:10:59;39.60;;;16.70;;
2023;SDS011;1016;48.770;9.154;2023-02-13T06:13:24;35.37;;;15.47;;
2023;SDS011;1016;48.770;9.154;2023-02-13T06:15:50;37.40;;;16.60;;
2023;SDS011;1016;48.770;9.154;2023-02-13T06:18:15;35.77;;;15.90;;
2023;SDS011;1016;48.770;9.154;2023-02-13T06:20:41;36.83;;;15.80;;
2023;SDS011;1016;48.770;9.154;2023-02-13T06:23:06;34.87;;;14.67;;
2023;SDS011;1016;48.770;9.154;2023-02-13T06:25:35;34.30;;;15.33;;
2023;SDS011;1016;48.770;9.154;2023-02-13T06:28:01;34.93;;;14.93;;
2023;SDS011;1016;48.770;9.154;2023-02-13T06:30:28;33.70;;;14.33;;
2023;SDS011;1016;48.770;9.154;2023-02-13T06:32:53;35.00;;;15.67;;
2023;SDS011;1016;48.770;9.154;2023-02-13T06:35:19;38.73;;;16.50;;
2023;SDS011;1016;48.770;9.154;2023-02-13T06:37:44;36.50;;;15.80;;
2023;SDS011;1016;48.770;9.154;2023-02-13T06:40:10;39.53;;;16.80;;
2023;SDS011;1016;48.770;9.154;2023-02-13T06:42:37;36.83;;;15.63;;
2023;SDS011;1016;48.770;9.154;2023-02-13T06:45:04;38.40;;;17.00;;
2023;SDS011;1016;48.770;9.154;2023-02-13T06:47:30;37.07;;;16.37;;
2023;SDS011;1016;48.770;9.154;2023-02-13T06:49:56;40.13;;;17.23;;
2023;SDS011;1016;48.770;9.154;2023-02-13T06:52:21;37.80;;;16.30;;
2023;SDS011;1016;48.770;9.154;2023-02-13T06:54:47;37.70;;;16.17;;
2023;SDS011;1016;48.770;9.154;2023-02-13T06:57:12;35.87;;;16.13;;
2023;SDS011;1016;48.770;9.154;2023-02-13T06:59:38;36.30;;;16.97;;
2023;SDS011;1016;48.770;9.154;2023-02-13T07:02:03;36.80;;;16.87;;
2023;SDS011;1016;48.770;9.154;2023-02-13T07:04:29;38.33;;;16.47;;
2023;SDS011;1016;48.770;9.154;2023-02-13T07:06:55;35.97;;;16.80;;
2023;SDS011;1016;48.770;9.154;2023-02-13T07:09:21;36.27;;;15.60;;
2023;SDS011;1016;48.770;9.154;2023-02-13T07:11:47;38.97;;;17.90;;
2023;SDS011;1016;48.770;9.154;2023-02-13T07:14:12;38.47;;;15.83;;
2023;SDS011;1016;48.770;9.154;2023-02-13T07:16:38;35.27;;;15.73;;
2023;SDS011;1016;48.770;9.154;2023-02-13T07:19:04;36.10;;;16.07;;
2023;SDS011;1016;48.770;9.154;2023-02-13T07:21:29;36.20;;;16.67;;
2023;SDS011;1016;48.770;9.154;2023-02-13T07:23:55;38.80;;;15.97;;
2023;SDS011;1016;48.770;9.154;2023-02-13T07:26:20;39.80;;;17.70;;
2023;SDS011;1016;48.770;9.154;2023-02-13T07:28:46;39.40;;;16.77;;
2023;SDS011;1016;48.770;9.154;2023-02-13T07:31:11;37.93;;;17.00;;
2023;SDS011;1016;48.770;9.154;2023-02-13T07:33:37;36.27;;;16.53;;
2023;SDS011;1016;48.770;9.154;2023-02-13T07:36:03;36.53;;;15.90;;
2023;SDS011;1016;48.770;9.154;2023-02-13T07:38:29;36.80;;;17.07;;
2023;SDS011;1016;48.770;9.154;2023-02-13T07:40:59;40.67;;;17.90;;
2023;SDS011;1016;48.770;9.154;2023-02-13T07:43:26;37.90;;;16.90;;
2023;SDS011;1016;48.770;9.154;2023-02-13T07:45:52;37.67;;;18.00;;
2023;SDS011;1016;48.770;9.154;2023-02-13T07:48:19;38.13;;;17.87;;
2023;SDS011;1016;48.770;9.154;2023-02-13T07:50:46;38.50;;;17.83;;
2023;SDS011;1016;48.770;9.154;2023-02-13T07:53:11;41.70;;;18.00;;
2023;SDS011;1016;48.770;9.154;2023-02-13T07:55:37;39.30;;;18.90;;
2023;SDS011;1016;48.770;9.154;2023-02-13T07:58:03;38.93;;;18.53;;
2023;SDS011;1016;48.770;9.154;2023-02-13T08:00:29;39.73;;;19.00;;
2023;SDS011;1016;48.770;9.154;2023-02-13T08:02:57;41.83;;;18.60;;
2023;SDS011;1016;48.770;9.154;2023-02-13T08:05:24;37.53;;;17.77;;
2023;SDS011;1016;48.770;9.154;2023-02-13T08:07:49;38.90;;;17.27;;
2023;SDS011;1016;48.770;9.154;2023-02-13T08:10:15;36.17;;;17.27;;
2023;SDS011;1016;48.770;9.154;2023-02-13T08:12:59;36.83;;;17.13;;
2023;SDS011;1016;48.770;9.154;2023-02-13T08:15:26;40.50;;;18.47;;
2023;SDS011;1016;48.770;9.154;2023-02-13T08:17:51;35.70;;;17.10;;
2023;SDS011;1016;48.770;9.154;2023-02-13T08:20:17;35.90;;;16.43;;
2023;SDS011;1016;48.770;9.154;2023-02-13T08:22:43;36.20;;;17.60;;
2023;SDS011;1016;48.770;9.154;2023-02-13T08:25:08;37.63;;;17.07;;
2023;SDS011;1016;48.770;9.154;2023-02-13T08:27:34;34.63;;;16.27;;
2023;SDS011;1016;48.770;9.154;2023-02-13T08:29:59;37.10;;;15.70;;
2023;SDS011;1016;48.770;9.154;2023-02-13T08:32:27;33.70;;;14.70;;
2023;SDS011;1016;48.770;9.154;2023-02-13T08:34:53;33.13;;;14.60;;
2023;SDS011;1016;48.770;9.154;2023-02-13T08:37:18;33.07;;;15.03;;
2023;SDS011;1016;48.770;9.154;2023-02-13T08:39:44;31.73;;;14.40;;
2023;SDS011;1016;48.770;9.154;2023-02-13T08:42:09;32.00;;;14.57;;
2023;SDS011;1016;48.770;9.154;2023-02-13T08:44:35;31.90;;;14.10;;
2023;SDS011;1016;48.770;9.154;2023-02-13T08:47:01;31.87;;;14.50;;
2023;SDS011;1016;48.770;9.154;2023-02-13T08:49:28;32.47;;;14.10;;
2023;SDS011;1016;48.770;9.154;2023-02-13T08:51:54;31.10;;;14.80;;
2023;SDS011;1016;48.770;9.154;2023-02-13T08:54:19;33.57;;;15.50;;
2023;SDS011;1016;48.770;9.154;2023-02-13T08:56:45;33.43;;;15.63;;
2023;SDS011;1016;48.770;9.154;2023-02-13T08:59:11;33.07;;;15.17;;
2023;SDS011;1016;48.770;9.154;2023-02-13T09:01:37;30.43;;;14.37;;
2023;SDS011;1016;48.770;9.154;2023-02-13T09:04:02;33.80;;;15.13;;
2023;SDS011;1016;48.770;9.154;2023-02-13T09:06:28;30.20;;;13.43;;
2023;SDS011;1016;48.770;9.154;2023-02-13T09:08:54;31.45;;;15.98;;
2023;SDS011;1016;48.770;9.154;2023-02-13T09:11:19;30.77;;;14.70;;
2023;SDS011;1016;48.770;9.154;2023-02-13T09:13:47;29.87;;;14.03;;
2023;SDS011;1016;48.770;9.154;2023-02-13T09:16:14;30.17;;;13.60;;
2023;SDS011;1016;48.770;9.154;2023-02-13T09:18:40;30.60;;;13.93;;
2023;SDS011;1016;48.770;9.154;2023-02-13T09:21:06;31.23;;;13.60;;
2023;SDS011;1016;48.770;9.154;2023-02-13T09:23:36;30.47;;;13.33;;
2023;SDS011;1016;48.770;9.154;2023-02-13T09:26:03;31.57;;;14.00;;
2023;SDS011;1016;48.770;9.154;2023-02-13T09:28:30;28.63;;;12.67;;
2023;SDS011;1016;48.770;9.154;2023-02-13T09:30:57;29.17;;;12.80;;
2023;SDS011;1016;48.770;9.154;2023-02-13T09:33:23;29.77;;;12.40;;
2023;SDS011;1016;48.770;9.154;2023-02-13T09:35:50;27.97;;;12.10;;
2023;SDS011;1016;48.770;9.154;2023-02-13T09:38:16;29.13;;;13.10;;
2023;SDS011;1016;48.770;9.154;2023-02-13T09:40:49;28.90;;;12.83;;
2023;SDS011;1016;48.770;9.154;2023-02-13T09:46:10;27.90;;;11.37;;
2023;SDS011;1016;48.770;9.154;2023-02-13T09:48:58;28.23;;;12.67;;
2023;SDS011;1016;48.770;9.154;2023-02-13T09:51:27;30.63;;;11.90;;
2023;SDS011;1016;48.770;9.154;2023-02-13T09:54:00;29.00;;;11.93;;
2023;SDS011;1016;48.770;9.154;2023-02-13T09:56:46;28.23;;;12.23;;
2023;SDS011;1016;48.770;9.154;2023-02-13T09:59:41;28.20;;;12.23;;
2023;SDS011;1016;48.770;9.154;2023-02-13T10:05:08;28.50;;;11.97;;
2023;SDS011;1016;48.770;9.154;2023-02-13T10:07:56;27.60;;;11.40;;
2023;SDS011;1016;48.770;9.154;2023-02-13T10:10:41;26.47;;;11.10;;
2023;SDS011;1016;48.770;9.154;2023-02-13T10:18:37;28.73;;;10.93;;
2023;SDS011;1016;48.770;9.154;2023-02-13T10:21:14;27.20;;;11.67;;
2023;SDS011;1016;48.770;9.154;2023-02-13T10:23:47;29.70;;;12.03;;
2023;SDS011;1016;48.770;9.154;2023-02-13T10:26:26;27.43;;;11.30;;
2023;SDS011;1016;48.770;9.154;2023-02-13T10:29:08;27.60;;;12.13;;
2023;SDS011;1016;48.770;9.154;2023-02-13T10:32:11;33.27;;;11.33;;
2023;SDS011;1016;48.770;9.154;2023-02-13T10:34:43;27.77;;;11.93;;
2023;SDS011;1016;48.770;9.154;2023-02-13T10:37:14;30.20;;;11.93;;
2023;SDS011;1016;48.770;9.154;2023-02-13T10:39:45;26.00;;;10.83;;
2023;SDS011;1016;48.770;9.154;2023-02-13T10:42:26;30.20;;;12.20;;
2023;SDS011;1016;48.770;9.154;2023-02-13T10:51:18;29.10;;;11.40;;
2023;SDS011;1016;48.770;9.154;2023-02-13T10:56:55;28.37;;;11.60;;
2023;SDS011;1016;48.770;9.154;2023-02-13T10:59:46;29.50;;;12.50;;
2023;SDS011;1016;48.770;9.154;2023-02-13T11:07:44;27.00;;;11.50;;
2023;SDS011;1016;48.770;9.154;2023-02-13T11:10:18;26.83;;;10.97;;
2023;SDS011;1016;48.770;9.154;2023-02-13T11:12:45;26.80;;;10.70;;
2023;SDS011;1016;48.770;9.154;2023-02-13T11:15:24;28.57;;;11.20;;
2023;SDS011;1016;48.770;9.154;2023-02-13T11:17:55;29.40;;;11.40;;
2023;SDS011;1016;48.770;9.154;2023-02-13T11:25:50;27.80;;;11.37;;
2023;SDS011;1016;48.770;9.154;2023-02-13T11:28:20;25.93;;;10.63;;
2023;SDS011;1016;48.770;9.154;2023-02-13T11:30:46;28.00;;;10.77;;
2023;SDS011;1016;48.770;9.154;2023-02-13T11:35:41;26.40;;;11.37;;
2023;SDS011;1016;48.770;9.154;2023-02-13T11:40:40;27.30;;;9.73;;
2023;SDS011;1016;48.770;9.154;2023-02-13T11:43:13;25.67;;;10.33;;
2023;SDS011;1016;48.770;9.154;2023-02-13T11:46:00;24.30;;;9.63;;
2023;SDS011;1016;48.770;9.154;2023-02-13T11:48:27;26.77;;;9.43;;
2023;SDS011;1016;48.770;9.154;2023-02-13T11:50:53;27.17;;;9.43;;
2023;SDS011;1016;48.770;9.154;2023-02-13T11:53:28;23.23;;;8.83;;
2023;SDS011;1016;48.770;9.154;2023-02-13T11:58:35;23.90;;;8.50;;
2023;SDS011;1016;48.770;9.154;2023-02-13T12:01:22;26.43;;;8.27;;
2023;SDS011;1016;48.770;9.154;2023-02-13T12:03:59;23.93;;;8.43;;
2023;SDS011;1016;48.770;9.154;2023-02-13T12:06:27;24.63;;;8.87;;
2023;SDS011;1016;48.770;9.154;2023-02-13T12:08:53;25.37;;;8.67;;
2023;SDS011;1016;48.770;9.154;2023-02-13T12:11:20;23.40;;;8.43;;
2023;SDS011;1016;48.770;9.154;2023-02-13T12:13:50;23.97;;;8.83;;
2023;SDS011;1016;48.770;9.154;2023-02-13T12:16:23;26.03;;;8.80;;
2023;SDS011;1016;48.770;9.154;2023-02-13T12:18:55;24.60;;;9.33;;
2023;SDS011;1016;48.770;9.154;2023-02-13T12:24:05;25.40;;;9.80;;
2023;SDS011;1016;48.770;9.154;2023-02-13T12:26:46;23.40;;;9.33;;
2023;SDS011;1016;48.770;9.154;2023-02-13T12:29:26;23.13;;;8.73;;
2023;SDS011;1016;48.770;9.154;2023-02-13T12:34:48;24.30;;;8.93;;
2023;SDS011;1016;48.770;9.154;2023-02-13T12:54:03;27.50;;;12.00;;
2023;SDS011;1016;48.770;9.154;2023-02-13T12:57:13;25.50;;;10.50;;
2023;SDS011;1016;48.770;9.154;2023-02-13T13:00:07;25.30;;;10.40;;
2023;SDS011;1016;48.770;9.154;2023-02-13T13:21:33;37.03;;;17.70;;
2023;SDS011;1016;48.770;9.154;2023-02-13T13:24:12;29.67;;;12.30;;
2023;SDS011;1016;48.770;9.154;2023-02-13T13:27:10;27.33;;;11.00;;
2023;SDS011;1016;48.770;9.154;2023-02-13T13:29:43;27.37;;;11.60;;
2023;SDS011;1016;48.770;9.154;2023-02-13T13:32:23;28.07;;;10.70;;
2023;SDS011;1016;48.770;9.154;2023-02-13T13:34:50;26.90;;;10.80;;
2023;SDS011;1016;48.770;9.154;2023-02-13T13:39:56;26.00;;;10.10;;
2023;SDS011;1016;48.770;9.154;2023-02-13T13:50:47;28.47;;;11.40;;
2023;SDS011;1016;48.770;9.154;2023-02-13T13:53:15;28.47;;;11.40;;
2023;SDS011;1016;48.770;9.154;2023-02-13T13:58:23;28.57;;;10.80;;
2023;SDS011;1016;48.770;9.154;2023-02-13T14:09:35;26.43;;;11.10;;
2023;SDS011;1016;48.770;9.154;2023-02-13T14:14:48;25.70;;;9.17;;
2023;SDS011;1016;48.770;9.154;2023-02-13T14:17:16;30.40;;;11.97;;
2023;SDS011;1016;48.770;9.154;2023-02-13T14:20:32;25.93;;;10.40;;
2023;SDS011;1016;48.770;9.154;2023-02-13T14:23:07;30.33;;;10.80;;
2023;SDS011;1016;48.770;9.154;2023-02-13T14:29:03;27.67;;;10.23;;
2023;SDS011;1016;48.770;9.154;2023-02-13T14:31:35;26.73;;;10.47;;
2023;SDS011;1016;48.770;9.154;2023-02-13T14:34:05;27.80;;;10.97;;
2023;SDS011;1016;48.770;9.154;2023-02-13T14:36:36;27.60;;;10.97;;
2023;SDS011;1016;48.770;9.154;2023-02-13T14:44:50;25.07;;;10.17;;
2023;SDS011;1016;48.770;9.154;2023-02-13T14:47:19;26.90;;;10.80;;
2023;SDS011;1016;48.770;9.154;2023-02-13T14:50:07;27.30;;;10.13;;
2023;SDS011;1016;48.770;9.154;2023-02-13T14:52:41;27.97;;;10.67;;
2023;SDS011;1016;48.770;9.154;2023-02-13T14:55:16;28.00;;;10.70;;
2023;SDS011;1016;48.770;9.154;2023-02-13T14:58:01;25.93;;;9.90;;
2023;SDS011;1016;48.770;9.154;2023-02-13T15:00:42;26.30;;;9.43;;
2023;SDS011;1016;48.770;9.154;2023-02-13T15:05:55;24.77;;;8.70;;
2023;SDS011;1016;48.770;9.154;2023-02-13T15:08:25;26.13;;;9.77;;
2023;SDS011;1016;48.770;9.154;2023-02-13T15:10:54;25.33;;;9.37;;
2023;SDS011;1016;48.770;9.154;2023-02-13T15:16:04;26.40;;;10.03;;
2023;SDS011;1016;48.770;9.154;2023-02-13T15:18:34;25.00;;;9.23;;
2023;SDS011;1016;48.770;9.154;2023-02-13T15:21:05;25.17;;;9.30;;
2023;SDS011;1016;48.770;9.154;2023-02-13T15:23:37;25.20;;;9.30;;
2023;SDS011;1016;48.770;9.154;2023-02-13T15:26:06;24.40;;;8.90;;
2023;SDS011;1016;48.770;9.154;2023-02-13T15:28:33;25.63;;;9.03;;
2023;SDS011;1016;48.770;9.154;2023-02-13T15:31:03;24.70;;;8.37;;
2023;SDS011;1016;48.770;9.154;2023-02-13T15:33:32;24.43;;;8.50;;
2023;SDS011;1016;48.770;9.154;2023-02-13T15:36:00;24.20;;;9.07;;
2023;SDS011;1016;48.770;9.154;2023-02-13T15:38:29;24.60;;;9.20;;
2023;SDS011;1016;48.770;9.154;2023-02-13T15:41:00;27.57;;;11.27;;
2023;SDS011;1016;48.770;9.154;2023-02-13T15:43:35;27.30;;;11.07;;
2023;SDS011;1016;48.770;9.154;2023-02-13T15:46:07;25.60;;;9.73;;
2023;SDS011;1016;48.770;9.154;2023-02-13T15:48:48;26.23;;;10.00;;
2023;SDS011;1016;48.770;9.154;2023-02-13T15:51:25;25.60;;;10.10;;
2023;SDS011;1016;48.770;9.154;2023-02-13T15:53:53;26.73;;;10.37;;
2023;SDS011;1016;48.770;9.154;2023-02-13T15:56:23;27.40;;;9.90;;
2023;SDS011;1016;48.770;9.154;2023-02-13T15:58:50;27.77;;;10.13;;
2023;SDS011;1016;48.770;9.154;2023-02-13T16:01:17;27.83;;;10.37;;
2023;SDS011;1016;48.770;9.154;2023-02-13T16:03:52;25.77;;;9.73;;
2023;SDS011;1016;48.770;9.154;2023-02-13T16:06:23;25.07;;;9.27;;
2023;SDS011;1016;48.770;9.154;2023-02-13T16:08:51;25.97;;;9.30;;
2023;SDS011;1016;48.770;9.154;2023-02-13T16:14:12;25.60;;;10.03;;
2023;SDS011;1016;48.770;9.154;2023-02-13T16:16:52;25.40;;;9.83;;
2023;SDS011;1016;48.770;9.154;2023-02-13T16:22:37;27.50;;;10.73;;
2023;SDS011;1016;48.770;9.154;2023-02-13T16:27:43;27.53;;;10.47;;
2023;SDS011;1016;48.770;9.154;2023-02-13T16:30:30;27.10;;;10.00;;
2023;SDS011;1016;48.770;9.154;2023-02-13T16:35:42;31.63;;;11.10;;
2023;SDS011;1016;48.770;9.154;2023-02-13T16:41:03;25.93;;;10.33;;
2023;SDS011;1016;48.770;9.154;2023-02-13T16:43:38;26.00;;;9.93;;
2023;SDS011;1016;48.770;9.154;2023-02-13T16:48:44;26.07;;;10.03;;
2023;SDS011;1016;48.770;9.154;2023-02-13T16:51:21;26.47;;;10.07;;
2023;SDS011;1016;48.770;9.154;2023-02-13T16:53:56;28.80;;;10.30;;
2023;SDS011;1016;48.770;9.154;2023-02-13T16:56:43;26.33;;;10.20;;
2023;SDS011;1016;48.770;9.154;2023-02-13T16:59:28;27.20;;;9.70;;
2023;SDS011;1016;48.770;9.154;2023-02-13T17:12:30;27.70;;;10.70;;
2023;SDS011;1016;48.770;9.154;2023-02-13T17:15:01;27.40;;;10.27;;
2023;SDS011;1016;48.770;9.154;2023-02-13T17:17:28;27.60;;;10.60;;
2023;SDS011;1016;48.770;9.154;2023-02-13T17:19:54;30.17;;;11.30;;
2023;SDS011;1016;48.770;9.154;2023-02-13T17:24:54;28.07;;;10.77;;
2023;SDS011;1016;48.770;9.154;2023-02-13T17:27:19;26.90;;;10.40;;
2023;SDS011;1016;48.770;9.154;2023-02-13T17:29:45;27.87;;;10.77;;
2023;SDS011;1016;48.770;9.154;2023-02-13T17:32:15;29.10;;;10.23;;
2023;SDS011;1016;48.770;9.154;2023-02-13T17:34:45;26.57;;;10.23;;
2023;SDS011;1016;48.770;9.154;2023-02-13T17:37:22;26.73;;;11.27;;
2023;SDS011;1016;48.770;9.154;2023-02-13T17:39:49;27.53;;;11.13;;
2023;SDS011;1016;48.770;9.154;2023-02-13T17:42:17;30.27;;;11.70;;
2023;SDS011;1016;48.770;9.154;2023-02-13T17:44:53;29.77;;;11.77;;
2023;SDS011;1016;48.770;9.154;2023-02-13T17:47:20;28.80;;;11.90;;
2023;SDS011;1016;48.770;9.154;2023-02-13T17:49:47;30.30;;;11.77;;
2023;SDS011;1016;48.770;9.154;2023-02-13T17:52:14;28.00;;;10.63;;
2023;SDS011;1016;48.770;9.154;2023-02-13T17:54:43;28.30;;;10.97;;
2023;SDS011;1016;48.770;9.154;2023-02-13T17:57:09;28.60;;;11.70;;
2023;SDS011;1016;48.770;9.154;2023-02-13T17:59:36;28.73;;;11.20;;
2023;SDS011;1016;48.770;9.154;2023-02-13T18:02:02;28.90;;;11.17;;
2023;SDS011;1016;48.770;9.154;2023-02-13T18:04:27;29.93;;;12.40;;
2023;SDS011;1016;48.770;9.154;2023-02-13T18:06:53;28.90;;;12.00;;
2023;SDS011;1016;48.770;9.154;2023-02-13T18:09:19;31.83;;;13.10;;
2023;SDS011;1016;48.770;9.154;2023-02-13T18:11:46;29.90;;;11.90;;
2023;SDS011;1016;48.770;9.154;2023-02-13T18:14:13;32.40;;;13.63;;
2023;SDS011;1016;48.770;9.154;2023-02-13T18:16:38;31.10;;;12.60;;